sensor_id;sensor_type;location;lat;lon;timestamp;P1;durP1;ratioP1;P2;durP2;ratioP2
69053;SDS011;56125;52.242;4.756;2023-05-07T00:02:45;2.40;;;2.20;;
69053;SDS011;56125;52.242;4.756;2023-05-07T00:07:47;3.13;;;2.50;;
69053;SDS011;56125;52.242;4.756;2023-05-07T00:12:48;5.30;;;3.03;;
69053;SDS011;56125;52.242;4.756;2023-05-07T00:17:49;3.40;;;2.70;;
69053;SDS011;56125;52.242;4.756;2023-05-07T00:22:50;6.57;;;3.87;;
69053;SDS011;56125;52.242;4.756;2023-05-07T00:27:51;4.57;;;3.55;;
69053;SDS011;56125;52.242;4.756;2023-05-07T00:32:52;6.30;;;3.33;;
69053;SDS011;56125;52.242;4.756;2023-05-07T00:37:53;4.55;;;3.22;;
69053;SDS011;56125;52.242;4.756;2023-05-07T00:42:54;5.03;;;3.23;;
69053;SDS011;56125;52.242;4.756;2023-05-07T00:47:59;4.45;;;3.33;;
69053;SDS011;56125;52.242;4.756;2023-05-07T00:53:01;4.43;;;3.60;;
69053;SDS011;56125;52.242;4.756;2023-05-07T00:58:03;5.95;;;3.53;;
69053;SDS011;56125;52.242;4.756;2023-05-07T01:03:04;6.23;;;3.73;;
69053;SDS011;56125;52.242;4.756;2023-05-07T01:08:05;6.85;;;3.78;;
69053;SDS011;56125;52.242;4.756;2023-05-07T01:13:07;5.77;;;3.70;;
69053;SDS011;56125;52.242;4.756;2023-05-07T01:18:08;6.70;;;3.72;;
69053;SDS011;56125;52.242;4.756;2023-05-07T01:23:09;5.90;;;3.60;;
69053;SDS011;56125;52.242;4.756;2023-05-07T01:28:11;6.07;;;3.90;;
69053;SDS011;56125;52.242;4.756;2023-05-07T01:33:13;5.13;;;3.67;;
69053;SDS011;56125;52.242;4.756;2023-05-07T01:38:19;5.30;;;4.10;;
69053;SDS011;56125;52.242;4.756;2023-05-07T01:43:22;5.00;;;3.90;;
69053;SDS011;56125;52.242;4.756;2023-05-07T01:48:24;4.85;;;3.80;;
69053;SDS011;56125;52.242;4.756;2023-05-07T01:53:27;6.37;;;3.83;;
69053;SDS011;56125;52.242;4.756;2023-05-07T01:58:28;6.88;;;4.32;;
69053;SDS011;56125;52.242;4.756;2023-05-07T02:03:29;5.57;;;4.03;;
69053;SDS011;56125;52.242;4.756;2023-05-07T02:08:31;5.95;;;3.83;;
69053;SDS011;56125;52.242;4.756;2023-05-07T02:13:32;5.70;;;3.97;;
69053;SDS011;56125;52.242;4.756;2023-05-07T02:18:34;6.72;;;3.90;;
69053;SDS011;56125;52.242;4.756;2023-05-07T02:23:36;5.43;;;3.60;;
69053;SDS011;56125;52.242;4.756;2023-05-07T02:28:37;4.78;;;3.70;;
69053;SDS011;56125;52.242;4.756;2023-05-07T02:33:38;4.80;;;3.57;;
69053;SDS011;56125;52.242;4.756;2023-05-07T02:38:39;5.93;;;3.38;;
69053;SDS011;56125;52.242;4.756;2023-05-07T02:43:40;4.87;;;3.03;;
69053;SDS011;56125;52.242;4.756;2023-05-07T02:48:41;3.92;;;2.92;;
69053;SDS011;56125;52.242;4.756;2023-05-07T02:53:42;5.30;;;3.17;;
69053;SDS011;56125;52.242;4.756;2023-05-07T02:58:43;4.15;;;2.97;;
69053;SDS011;56125;52.242;4.756;2023-05-07T03:03:44;4.27;;;2.97;;
69053;SDS011;56125;52.242;4.756;2023-05-07T03:08:45;3.05;;;2.72;;
69053;SDS011;56125;52.242;4.756;2023-05-07T03:13:46;5.80;;;3.30;;
69053;SDS011;56125;52.242;4.756;2023-05-07T03:18:49;3.40;;;2.55;;
69053;SDS011;56125;52.242;4.756;2023-05-07T03:23:50;3.83;;;2.70;;
69053;SDS011;56125;52.242;4.756;2023-05-07T03:28:51;2.30;;;2.10;;
69053;SDS011;56125;52.242;4.756;2023-05-07T03:33:53;3.40;;;2.43;;
69053;SDS011;56125;52.242;4.756;2023-05-07T03:38:55;4.55;;;2.85;;
69053;SDS011;56125;52.242;4.756;2023-05-07T03:43:56;3.23;;;2.40;;
69053;SDS011;56125;52.242;4.756;2023-05-07T03:48:58;3.80;;;2.15;;
69053;SDS011;56125;52.242;4.756;2023-05-07T03:53:59;2.33;;;1.60;;
69053;SDS011;56125;52.242;4.756;2023-05-07T03:59:00;2.85;;;1.85;;
69053;SDS011;56125;52.242;4.756;2023-05-07T04:04:01;2.70;;;2.10;;
69053;SDS011;56125;52.242;4.756;2023-05-07T04:09:03;2.65;;;1.92;;
69053;SDS011;56125;52.242;4.756;2023-05-07T04:14:04;3.77;;;1.83;;
69053;SDS011;56125;52.242;4.756;2023-05-07T04:19:05;3.20;;;2.00;;
69053;SDS011;56125;52.242;4.756;2023-05-07T04:24:06;2.00;;;1.80;;
69053;SDS011;56125;52.242;4.756;2023-05-07T04:29:07;3.10;;;2.00;;
69053;SDS011;56125;52.242;4.756;2023-05-07T04:34:08;2.50;;;2.10;;
69053;SDS011;56125;52.242;4.756;2023-05-07T04:39:09;2.30;;;1.60;;
69053;SDS011;56125;52.242;4.756;2023-05-07T04:44:11;2.73;;;1.97;;
69053;SDS011;56125;52.242;4.756;2023-05-07T04:49:12;2.38;;;1.67;;
69053;SDS011;56125;52.242;4.756;2023-05-07T04:54:13;2.13;;;1.70;;
69053;SDS011;56125;52.242;4.756;2023-05-07T04:59:14;6.68;;;2.00;;
69053;SDS011;56125;52.242;4.756;2023-05-07T05:04:15;2.47;;;1.80;;
69053;SDS011;56125;52.242;4.756;2023-05-07T05:09:16;3.15;;;2.00;;
69053;SDS011;56125;52.242;4.756;2023-05-07T05:14:17;2.73;;;2.00;;
69053;SDS011;56125;52.242;4.756;2023-05-07T05:19:18;2.72;;;1.80;;
69053;SDS011;56125;52.242;4.756;2023-05-07T05:24:19;3.37;;;2.50;;
69053;SDS011;56125;52.242;4.756;2023-05-07T05:29:20;2.33;;;1.80;;
69053;SDS011;56125;52.242;4.756;2023-05-07T05:34:22;3.07;;;1.67;;
69053;SDS011;56125;52.242;4.756;2023-05-07T05:39:23;2.25;;;1.85;;
69053;SDS011;56125;52.242;4.756;2023-05-07T05:44:24;3.07;;;2.10;;
69053;SDS011;56125;52.242;4.756;2023-05-07T05:49:25;3.60;;;2.05;;
69053;SDS011;56125;52.242;4.756;2023-05-07T05:54:26;4.53;;;2.30;;
69053;SDS011;56125;52.242;4.756;2023-05-07T05:59:27;2.00;;;1.80;;
69053;SDS011;56125;52.242;4.756;2023-05-07T06:04:28;2.30;;;1.90;;
69053;SDS011;56125;52.242;4.756;2023-05-07T06:09:29;3.00;;;1.90;;
69053;SDS011;56125;52.242;4.756;2023-05-07T06:14:30;3.70;;;1.90;;
69053;SDS011;56125;52.242;4.756;2023-05-07T06:19:31;2.40;;;2.03;;
69053;SDS011;56125;52.242;4.756;2023-05-07T06:24:32;3.17;;;2.50;;
69053;SDS011;56125;52.242;4.756;2023-05-07T06:29:33;2.90;;;2.25;;
69053;SDS011;56125;52.242;4.756;2023-05-07T06:34:35;3.90;;;2.43;;
69053;SDS011;56125;52.242;4.756;2023-05-07T06:39:36;2.40;;;2.20;;
69053;SDS011;56125;52.242;4.756;2023-05-07T06:44:37;2.63;;;2.20;;
69053;SDS011;56125;52.242;4.756;2023-05-07T06:49:38;2.90;;;2.10;;
69053;SDS011;56125;52.242;4.756;2023-05-07T06:54:39;3.77;;;2.53;;
69053;SDS011;56125;52.242;4.756;2023-05-07T06:59:40;3.88;;;2.40;;
69053;SDS011;56125;52.242;4.756;2023-05-07T07:04:41;3.33;;;2.50;;
69053;SDS011;56125;52.242;4.756;2023-05-07T07:09:42;4.15;;;2.40;;
69053;SDS011;56125;52.242;4.756;2023-05-07T07:14:43;3.00;;;2.70;;
69053;SDS011;56125;52.242;4.756;2023-05-07T07:19:44;3.78;;;2.40;;
69053;SDS011;56125;52.242;4.756;2023-05-07T07:24:45;3.53;;;2.50;;
69053;SDS011;56125;52.242;4.756;2023-05-07T07:29:46;3.30;;;2.72;;
69053;SDS011;56125;52.242;4.756;2023-05-07T07:34:47;2.93;;;2.50;;
69053;SDS011;56125;52.242;4.756;2023-05-07T07:39:48;5.07;;;2.28;;
69053;SDS011;56125;52.242;4.756;2023-05-07T07:44:49;3.30;;;2.50;;
69053;SDS011;56125;52.242;4.756;2023-05-07T07:49:50;5.38;;;2.67;;
69053;SDS011;56125;52.242;4.756;2023-05-07T07:54:51;2.93;;;2.20;;
69053;SDS011;56125;52.242;4.756;2023-05-07T07:59:52;2.72;;;2.45;;
69053;SDS011;56125;52.242;4.756;2023-05-07T08:04:53;3.73;;;2.60;;
69053;SDS011;56125;52.242;4.756;2023-05-07T08:09:54;3.55;;;2.25;;
69053;SDS011;56125;52.242;4.756;2023-05-07T08:14:55;4.57;;;2.80;;
69053;SDS011;56125;52.242;4.756;2023-05-07T08:19:56;3.33;;;2.40;;
69053;SDS011;56125;52.242;4.756;2023-05-07T08:24:57;4.43;;;2.50;;
69053;SDS011;56125;52.242;4.756;2023-05-07T08:30:00;3.67;;;2.75;;
69053;SDS011;56125;52.242;4.756;2023-05-07T08:35:01;5.30;;;3.10;;
69053;SDS011;56125;52.242;4.756;2023-05-07T08:40:02;3.22;;;2.40;;
69053;SDS011;56125;52.242;4.756;2023-05-07T08:45:04;3.50;;;2.50;;
69053;SDS011;56125;52.242;4.756;2023-05-07T08:50:10;3.92;;;2.80;;
69053;SDS011;56125;52.242;4.756;2023-05-07T08:55:12;3.90;;;2.30;;
69053;SDS011;56125;52.242;4.756;2023-05-07T09:00:13;5.28;;;2.70;;
69053;SDS011;56125;52.242;4.756;2023-05-07T09:05:15;4.70;;;2.30;;
69053;SDS011;56125;52.242;4.756;2023-05-07T09:10:16;4.40;;;2.33;;
69053;SDS011;56125;52.242;4.756;2023-05-07T09:15:17;3.53;;;2.33;;
69053;SDS011;56125;52.242;4.756;2023-05-07T09:20:19;5.22;;;2.60;;
69053;SDS011;56125;52.242;4.756;2023-05-07T09:25:30;6.87;;;2.93;;
69053;SDS011;56125;52.242;4.756;2023-05-07T09:30:33;5.20;;;3.05;;
69053;SDS011;56125;52.242;4.756;2023-05-07T09:35:34;4.60;;;2.60;;
69053;SDS011;56125;52.242;4.756;2023-05-07T09:40:35;3.55;;;2.78;;
69053;SDS011;56125;52.242;4.756;2023-05-07T09:45:37;4.97;;;2.73;;
69053;SDS011;56125;52.242;4.756;2023-05-07T09:50:45;4.63;;;2.80;;
69053;SDS011;56125;52.242;4.756;2023-05-07T09:55:49;3.80;;;2.90;;
69053;SDS011;56125;52.242;4.756;2023-05-07T10:00:51;4.13;;;2.40;;
69053;SDS011;56125;52.242;4.756;2023-05-07T10:05:53;5.20;;;3.10;;
69053;SDS011;56125;52.242;4.756;2023-05-07T10:10:55;9.00;;;2.60;;
69053;SDS011;56125;52.242;4.756;2023-05-07T10:15:56;5.23;;;2.43;;
69053;SDS011;56125;52.242;4.756;2023-05-07T10:21:07;5.43;;;2.17;;
69053;SDS011;56125;52.242;4.756;2023-05-07T10:26:13;4.00;;;2.17;;
69053;SDS011;56125;52.242;4.756;2023-05-07T10:36:31;5.60;;;2.33;;
69053;SDS011;56125;52.242;4.756;2023-05-07T10:41:34;5.85;;;2.20;;
69053;SDS011;56125;52.242;4.756;2023-05-07T10:46:35;5.00;;;2.00;;
69053;SDS011;56125;52.242;4.756;2023-05-07T10:51:36;5.43;;;2.58;;
69053;SDS011;56125;52.242;4.756;2023-05-07T10:56:39;4.73;;;2.40;;
69053;SDS011;56125;52.242;4.756;2023-05-07T11:01:52;4.82;;;2.50;;
69053;SDS011;56125;52.242;4.756;2023-05-07T11:07:12;3.10;;;2.10;;
69053;SDS011;56125;52.242;4.756;2023-05-07T11:17:52;5.17;;;3.00;;
69053;SDS011;56125;52.242;4.756;2023-05-07T11:22:54;5.25;;;2.70;;
69053;SDS011;56125;52.242;4.756;2023-05-07T11:28:03;4.93;;;2.60;;
69053;SDS011;56125;52.242;4.756;2023-05-07T11:33:06;6.88;;;2.80;;
69053;SDS011;56125;52.242;4.756;2023-05-07T11:38:07;5.43;;;2.53;;
69053;SDS011;56125;52.242;4.756;2023-05-07T11:43:11;4.38;;;2.60;;
69053;SDS011;56125;52.242;4.756;2023-05-07T11:48:12;5.70;;;2.57;;
69053;SDS011;56125;52.242;4.756;2023-05-07T11:53:14;4.78;;;2.30;;
69053;SDS011;56125;52.242;4.756;2023-05-07T11:58:20;4.03;;;2.40;;
69053;SDS011;56125;52.242;4.756;2023-05-07T12:03:22;6.05;;;2.65;;
69053;SDS011;56125;52.242;4.756;2023-05-07T12:08:23;5.27;;;2.80;;
69053;SDS011;56125;52.242;4.756;2023-05-07T12:13:25;6.65;;;2.60;;
69053;SDS011;56125;52.242;4.756;2023-05-07T12:18:26;9.83;;;2.70;;
69053;SDS011;56125;52.242;4.756;2023-05-07T12:23:28;5.82;;;2.33;;
69053;SDS011;56125;52.242;4.756;2023-05-07T12:28:31;4.93;;;2.60;;
69053;SDS011;56125;52.242;4.756;2023-05-07T12:33:36;7.60;;;2.55;;
69053;SDS011;56125;52.242;4.756;2023-05-07T12:38:38;4.60;;;2.10;;
69053;SDS011;56125;52.242;4.756;2023-05-07T12:43:42;4.47;;;1.88;;
69053;SDS011;56125;52.242;4.756;2023-05-07T12:48:45;4.35;;;2.13;;
69053;SDS011;56125;52.242;4.756;2023-05-07T12:53:46;6.68;;;2.10;;
69053;SDS011;56125;52.242;4.756;2023-05-07T12:58:48;2.85;;;1.63;;
69053;SDS011;56125;52.242;4.756;2023-05-07T13:03:49;2.55;;;1.85;;
69053;SDS011;56125;52.242;4.756;2023-05-07T13:08:53;4.20;;;2.22;;
69053;SDS011;56125;52.242;4.756;2023-05-07T13:13:54;5.30;;;1.90;;
69053;SDS011;56125;52.242;4.756;2023-05-07T13:18:55;2.72;;;2.20;;
69053;SDS011;56125;52.242;4.756;2023-05-07T13:23:56;6.68;;;2.10;;
69053;SDS011;56125;52.242;4.756;2023-05-07T13:28:58;5.80;;;1.88;;
69053;SDS011;56125;52.242;4.756;2023-05-07T13:33:59;4.90;;;2.10;;
69053;SDS011;56125;52.242;4.756;2023-05-07T13:39:00;3.58;;;2.33;;
69053;SDS011;56125;52.242;4.756;2023-05-07T13:44:01;3.13;;;2.00;;
69053;SDS011;56125;52.242;4.756;2023-05-07T13:49:02;2.95;;;1.45;;
69053;SDS011;56125;52.242;4.756;2023-05-07T13:54:03;3.17;;;1.85;;
69053;SDS011;56125;52.242;4.756;2023-05-07T13:59:04;3.13;;;1.90;;
69053;SDS011;56125;52.242;4.756;2023-05-07T14:04:05;3.92;;;1.83;;
69053;SDS011;56125;52.242;4.756;2023-05-07T14:09:06;2.65;;;1.80;;
69053;SDS011;56125;52.242;4.756;2023-05-07T14:14:08;4.53;;;2.50;;
69053;SDS011;56125;52.242;4.756;2023-05-07T14:19:11;5.85;;;2.45;;
69053;SDS011;56125;52.242;4.756;2023-05-07T14:24:12;3.67;;;2.38;;
69053;SDS011;56125;52.242;4.756;2023-05-07T14:29:13;6.07;;;2.60;;
69053;SDS011;56125;52.242;4.756;2023-05-07T14:34:16;6.75;;;2.65;;
69053;SDS011;56125;52.242;4.756;2023-05-07T14:39:17;7.07;;;3.30;;
69053;SDS011;56125;52.242;4.756;2023-05-07T14:44:18;5.13;;;3.28;;
69053;SDS011;56125;52.242;4.756;2023-05-07T14:49:19;7.78;;;3.30;;
69053;SDS011;56125;52.242;4.756;2023-05-07T14:54:20;6.18;;;3.50;;
69053;SDS011;56125;52.242;4.756;2023-05-07T14:59:21;5.20;;;3.55;;
69053;SDS011;56125;52.242;4.756;2023-05-07T15:04:23;5.00;;;3.33;;
69053;SDS011;56125;52.242;4.756;2023-05-07T15:09:25;5.65;;;3.30;;
69053;SDS011;56125;52.242;4.756;2023-05-07T15:14:26;5.15;;;3.47;;
69053;SDS011;56125;52.242;4.756;2023-05-07T15:19:27;6.32;;;3.00;;
69053;SDS011;56125;52.242;4.756;2023-05-07T15:24:30;6.13;;;3.10;;
69053;SDS011;56125;52.242;4.756;2023-05-07T15:29:31;5.32;;;3.08;;
69053;SDS011;56125;52.242;4.756;2023-05-07T15:34:32;4.65;;;2.85;;
69053;SDS011;56125;52.242;4.756;2023-05-07T15:39:33;4.40;;;2.90;;
69053;SDS011;56125;52.242;4.756;2023-05-07T15:44:34;6.57;;;3.00;;
69053;SDS011;56125;52.242;4.756;2023-05-07T15:49:35;4.35;;;2.80;;
69053;SDS011;56125;52.242;4.756;2023-05-07T15:54:36;5.70;;;3.28;;
69053;SDS011;56125;52.242;4.756;2023-05-07T15:59:37;4.65;;;3.33;;
69053;SDS011;56125;52.242;4.756;2023-05-07T16:04:39;4.57;;;2.90;;
69053;SDS011;56125;52.242;4.756;2023-05-07T16:09:40;4.05;;;3.65;;
69053;SDS011;56125;52.242;4.756;2023-05-07T16:14:41;5.38;;;3.45;;
69053;SDS011;56125;52.242;4.756;2023-05-07T16:19:42;7.15;;;3.50;;
69053;SDS011;56125;52.242;4.756;2023-05-07T16:24:43;6.95;;;3.80;;
69053;SDS011;56125;52.242;4.756;2023-05-07T16:29:45;4.90;;;3.35;;
69053;SDS011;56125;52.242;4.756;2023-05-07T16:34:46;9.38;;;4.03;;
69053;SDS011;56125;52.242;4.756;2023-05-07T16:39:47;4.68;;;3.40;;
69053;SDS011;56125;52.242;4.756;2023-05-07T16:44:48;5.20;;;3.45;;
69053;SDS011;56125;52.242;4.756;2023-05-07T16:49:49;4.45;;;3.35;;
69053;SDS011;56125;52.242;4.756;2023-05-07T16:54:50;6.13;;;3.38;;
69053;SDS011;56125;52.242;4.756;2023-05-07T16:59:51;4.75;;;3.33;;
69053;SDS011;56125;52.242;4.756;2023-05-07T17:04:55;4.57;;;3.00;;
69053;SDS011;56125;52.242;4.756;2023-05-07T17:09:56;4.07;;;3.35;;
69053;SDS011;56125;52.242;4.756;2023-05-07T17:14:57;5.20;;;3.35;;
69053;SDS011;56125;52.242;4.756;2023-05-07T17:19:58;5.05;;;3.55;;
69053;SDS011;56125;52.242;4.756;2023-05-07T17:24:59;6.60;;;3.85;;
69053;SDS011;56125;52.242;4.756;2023-05-07T17:30:03;7.35;;;3.53;;
69053;SDS011;56125;52.242;4.756;2023-05-07T17:35:04;4.78;;;3.45;;
69053;SDS011;56125;52.242;4.756;2023-05-07T17:40:06;5.32;;;3.60;;
69053;SDS011;56125;52.242;4.756;2023-05-07T17:45:07;6.40;;;4.40;;
69053;SDS011;56125;52.242;4.756;2023-05-07T17:50:08;8.45;;;3.70;;
69053;SDS011;56125;52.242;4.756;2023-05-07T17:55:10;7.78;;;4.45;;
69053;SDS011;56125;52.242;4.756;2023-05-07T18:00:11;6.82;;;4.15;;
69053;SDS011;56125;52.242;4.756;2023-05-07T18:05:13;6.43;;;3.80;;
69053;SDS011;56125;52.242;4.756;2023-05-07T18:10:14;6.20;;;3.25;;
69053;SDS011;56125;52.242;4.756;2023-05-07T18:15:15;4.07;;;2.90;;
69053;SDS011;56125;52.242;4.756;2023-05-07T18:20:16;4.68;;;3.08;;
69053;SDS011;56125;52.242;4.756;2023-05-07T18:25:17;2.80;;;2.10;;
69053;SDS011;56125;52.242;4.756;2023-05-07T18:30:18;3.97;;;2.42;;
69053;SDS011;56125;52.242;4.756;2023-05-07T18:35:19;3.35;;;2.38;;
69053;SDS011;56125;52.242;4.756;2023-05-07T18:40:20;3.15;;;2.20;;
69053;SDS011;56125;52.242;4.756;2023-05-07T18:45:21;3.35;;;2.08;;
69053;SDS011;56125;52.242;4.756;2023-05-07T18:50:22;2.95;;;1.90;;
69053;SDS011;56125;52.242;4.756;2023-05-07T18:55:23;2.70;;;2.03;;
69053;SDS011;56125;52.242;4.756;2023-05-07T19:00:24;3.38;;;2.00;;
69053;SDS011;56125;52.242;4.756;2023-05-07T19:05:25;3.33;;;2.13;;
69053;SDS011;56125;52.242;4.756;2023-05-07T19:10:26;2.90;;;1.92;;
69053;SDS011;56125;52.242;4.756;2023-05-07T19:15:27;2.83;;;2.00;;
69053;SDS011;56125;52.242;4.756;2023-05-07T19:20:29;3.35;;;2.00;;
69053;SDS011;56125;52.242;4.756;2023-05-07T19:25:30;3.25;;;2.10;;
69053;SDS011;56125;52.242;4.756;2023-05-07T19:30:31;1.95;;;1.73;;
69053;SDS011;56125;52.242;4.756;2023-05-07T19:35:32;1.85;;;1.70;;
69053;SDS011;56125;52.242;4.756;2023-05-07T19:40:34;2.88;;;1.77;;
69053;SDS011;56125;52.242;4.756;2023-05-07T19:45:35;3.15;;;1.98;;
69053;SDS011;56125;52.242;4.756;2023-05-07T19:50:37;2.65;;;2.10;;
69053;SDS011;56125;52.242;4.756;2023-05-07T19:55:38;3.15;;;2.15;;
69053;SDS011;56125;52.242;4.756;2023-05-07T20:00:39;2.03;;;1.83;;
69053;SDS011;56125;52.242;4.756;2023-05-07T20:05:40;3.33;;;2.08;;
69053;SDS011;56125;52.242;4.756;2023-05-07T20:10:41;2.00;;;1.80;;
69053;SDS011;56125;52.242;4.756;2023-05-07T20:15:42;2.33;;;1.77;;
69053;SDS011;56125;52.242;4.756;2023-05-07T20:20:43;3.40;;;1.88;;
69053;SDS011;56125;52.242;4.756;2023-05-07T20:25:45;3.72;;;2.20;;
69053;SDS011;56125;52.242;4.756;2023-05-07T20:30:47;3.25;;;2.20;;
69053;SDS011;56125;52.242;4.756;2023-05-07T20:35:48;5.18;;;2.28;;
69053;SDS011;56125;52.242;4.756;2023-05-07T20:40:49;3.28;;;2.25;;
69053;SDS011;56125;52.242;4.756;2023-05-07T20:45:57;2.97;;;2.30;;
69053;SDS011;56125;52.242;4.756;2023-05-07T20:51:01;3.88;;;2.40;;
69053;SDS011;56125;52.242;4.756;2023-05-07T20:56:02;3.00;;;2.40;;
69053;SDS011;56125;52.242;4.756;2023-05-07T21:01:04;3.78;;;2.30;;
69053;SDS011;56125;52.242;4.756;2023-05-07T21:06:05;11.07;;;2.58;;
69053;SDS011;56125;52.242;4.756;2023-05-07T21:11:07;2.30;;;2.10;;
69053;SDS011;56125;52.242;4.756;2023-05-07T21:16:09;4.20;;;2.28;;
69053;SDS011;56125;52.242;4.756;2023-05-07T21:21:10;2.55;;;2.35;;
69053;SDS011;56125;52.242;4.756;2023-05-07T21:26:16;3.10;;;2.28;;
69053;SDS011;56125;52.242;4.756;2023-05-07T21:31:18;3.15;;;2.60;;
69053;SDS011;56125;52.242;4.756;2023-05-07T21:36:19;2.60;;;2.40;;
69053;SDS011;56125;52.242;4.756;2023-05-07T21:41:20;3.40;;;2.42;;
69053;SDS011;56125;52.242;4.756;2023-05-07T21:46:22;3.20;;;2.45;;
69053;SDS011;56125;52.242;4.756;2023-05-07T21:51:23;3.28;;;2.90;;
69053;SDS011;56125;52.242;4.756;2023-05-07T21:56:24;3.45;;;2.30;;
69053;SDS011;56125;52.242;4.756;2023-05-07T22:01:25;3.63;;;2.53;;
69053;SDS011;56125;52.242;4.756;2023-05-07T22:06:26;3.50;;;3.00;;
69053;SDS011;56125;52.242;4.756;2023-05-07T22:11:27;2.85;;;2.50;;
69053;SDS011;56125;52.242;4.756;2023-05-07T22:16:28;3.83;;;2.63;;
69053;SDS011;56125;52.242;4.756;2023-05-07T22:21:29;3.72;;;2.53;;
69053;SDS011;56125;52.242;4.756;2023-05-07T22:26:30;3.08;;;2.70;;
69053;SDS011;56125;52.242;4.756;2023-05-07T22:31:32;3.40;;;2.60;;
69053;SDS011;56125;52.242;4.756;2023-05-07T22:36:33;4.13;;;3.22;;
69053;SDS011;56125;52.242;4.756;2023-05-07T22:41:34;3.22;;;2.80;;
69053;SDS011;56125;52.242;4.756;2023-05-07T22:46:35;3.55;;;2.80;;
69053;SDS011;56125;52.242;4.756;2023-05-07T22:51:36;3.15;;;2.40;;
69053;SDS011;56125;52.242;4.756;2023-05-07T22:56:38;2.63;;;2.42;;
69053;SDS011;56125;52.242;4.756;2023-05-07T23:01:40;3.90;;;2.85;;
69053;SDS011;56125;52.242;4.756;2023-05-07T23:06:41;3.05;;;2.65;;
69053;SDS011;56125;52.242;4.756;2023-05-07T23:11:42;3.35;;;2.53;;
69053;SDS011;56125;52.242;4.756;2023-05-07T23:16:43;3.28;;;2.90;;
69053;SDS011;56125;52.242;4.756;2023-05-07T23:21:44;3.13;;;2.83;;
69053;SDS011;56125;52.242;4.756;2023-05-07T23:26:45;3.00;;;2.70;;
69053;SDS011;56125;52.242;4.756;2023-05-07T23:31:46;5.60;;;3.27;;
69053;SDS011;56125;52.242;4.756;2023-05-07T23:36:47;3.63;;;3.20;;
69053;SDS011;56125;52.242;4.756;2023-05-07T23:41:48;5.38;;;4.22;;
69053;SDS011;56125;52.242;4.756;2023-05-07T23:46:49;7.47;;;5.32;;
69053;SDS011;56125;52.242;4.756;2023-05-07T23:51:50;9.32;;;6.18;;
69053;SDS011;56125;52.242;4.756;2023-05-07T23:56:51;8.65;;;6.13;;
